Lakemont, Georgia
Current Conditions -  °F | °C
As of 7:55 PM on Monday 22 Dec 2014 (Local Time) from KTOC Reporting Station
Moderate Rain Moderate Rain  
Wind Chill: 40°   Ceiling: 400
Heat Index: 42°   Visibility: 4mi
Dew Point: 42°   Wind: 5mph
Humidity: 98%   Direction: 110°ESE
Pressure: 29.99"   Gusts: NA
Location:  34.79°N, 83.42°W
Report Text: KTOC 230055Z AUTO 11004KT 4SM RA OVC004 06/06 A2999 RMK AO2 T00580055
Loading
Personal Weather Stations






























Interactive Weather Map New forecast layout! Learn more

10-Day Weather Forecast

Advertisements
Track Severe Weather on mobile